Time;durP1;ratioP1;P1;durP2;ratioP2;P2;SDS_P1;SDS_P2;PMS_P1;PMS_P2;Temp;Humidity;BMP_temperature;BMP_pressure;BME280_temperature;BME280_humidity;BME280_pressure;Samples;Min_cycle;Max_cycle;Signal;HPM_P1;HPM_P2
2023/12/12 00:00:38;;;;;;;4.88;1.60;;;;;;;17.81;77.44;100629.88;10461651;27;97086;-87
2023/12/12 00:05:42;;;;;;;2.83;1.50;;;;;;;17.78;77.78;100635.38;10462006;27;96863;-87
2023/12/12 00:10:47;;;;;;;4.38;1.45;;;;;;;17.68;79.34;100634.25;10461575;27;96933;-89
2023/12/12 00:15:50;;;;;;;3.97;1.60;;;;;;;17.72;79.06;100633.13;10467459;27;96950;-89
2023/12/12 00:20:54;;;;;;;4.22;1.80;;;;;;;17.79;79.29;100626.44;10464737;27;96730;-89
2023/12/12 00:26:09;;;;;;;;;;;;;;;;;;;;;
2023/12/12 00:31:15;;;;;;;5.28;1.67;;;;;;;17.80;79.87;100623.69;10455733;27;96792;-90
2023/12/12 00:36:32;;;;;;;3.08;1.88;;;;;;;17.64;80.06;100628.25;10462493;27;96689;-90
2023/12/12 00:41:37;;;;;;;4.07;2.22;;;;;;;17.59;80.92;100609.06;10463864;27;97314;-89
2023/12/12 00:46:41;;;;;;;5.20;3.85;;;;;;;17.46;81.78;100602.81;10485873;27;97360;-89
2023/12/12 00:51:50;;;;;;;3.90;2.20;;;;;;;17.48;82.28;100590.28;10482033;27;96783;-88
2023/12/12 00:56:58;;;;;;;4.82;2.30;;;;;;;17.46;82.64;100593.94;10464044;27;96828;-88
2023/12/12 01:02:05;;;;;;;4.43;2.20;;;;;;;17.43;82.60;100588.81;10462441;27;96752;-88
2023/12/12 01:07:11;;;;;;;3.17;2.05;;;;;;;17.39;83.21;100584.63;10461547;27;97223;-88
2023/12/12 01:12:16;;;;;;;4.40;1.80;;;;;;;17.43;83.54;100568.34;10461390;27;97371;-87
2023/12/12 01:17:19;;;;;;;3.50;1.88;;;;;;;17.43;83.53;100570.19;10460862;27;96852;-87
2023/12/12 01:22:23;;;;;;;3.75;1.80;;;;;;;17.42;83.66;100563.13;10460272;27;97773;-89
2023/12/12 01:27:28;;;;;;;5.30;2.33;;;;;;;17.41;83.52;100569.41;10463352;27;96749;-88
2023/12/12 01:32:34;;;;;;;2.58;1.70;;;;;;;17.47;83.65;100564.59;10460532;27;97123;-88
2023/12/12 01:37:38;;;;;;;5.20;2.40;;;;;;;17.46;83.67;100562.00;10459665;27;96710;-88
2023/12/12 01:42:43;;;;;;;6.15;2.15;;;;;;;17.48;83.80;100561.00;10458317;27;98804;-88
2023/12/12 01:47:47;;;;;;;5.93;2.97;;;;;;;17.45;83.96;100565.63;10459416;27;96836;-88
2023/12/12 01:52:51;;;;;;;6.78;2.50;;;;;;;17.46;84.59;100572.66;10460532;27;96599;-90
2023/12/12 01:57:58;;;;;;;2.60;1.40;;;;;;;17.52;84.73;100569.66;10460559;27;98442;-89
2023/12/12 02:03:01;;;;;;;2.45;1.50;;;;;;;17.57;85.00;100568.38;10461672;27;96599;-84
2023/12/12 02:08:09;;;;;;;2.37;1.60;;;;;;;17.47;86.30;100564.59;10458412;27;96885;-90
2023/12/12 02:13:30;;;;;;;10.43;1.70;;;;;;;17.46;85.52;100562.91;10460560;27;96592;-91
2023/12/12 02:18:38;;;;;;;5.22;1.50;;;;;;;17.42;87.18;100552.50;10461497;27;97084;-91
2023/12/12 02:23:47;;;;;;;3.13;1.73;;;;;;;17.46;87.92;100556.69;10464690;27;96647;-90
2023/12/12 02:28:53;;;;;;;3.70;1.60;;;;;;;17.48;88.16;100552.16;10462733;27;96666;-89
2023/12/12 02:34:00;;;;;;;4.47;1.50;;;;;;;17.50;86.94;100564.41;10453239;27;96881;-91
2023/12/12 02:39:11;;;;;;;2.78;1.70;;;;;;;17.47;87.50;100564.59;10468428;27;96854;-89
2023/12/12 02:44:16;;;;;;;3.20;1.90;;;;;;;17.49;87.08;100559.19;10467331;27;97349;-89
2023/12/12 02:49:21;;;;;;;5.85;2.40;;;;;;;17.50;87.12;100556.41;10467536;27;96871;-89
2023/12/12 02:54:29;;;;;;;8.50;2.38;;;;;;;17.53;86.58;100545.59;10465501;27;96691;-88
2023/12/12 02:59:33;;;;;;;3.40;1.55;;;;;;;17.49;86.76;100559.19;10465149;27;96596;-88
2023/12/12 03:04:38;;;;;;;2.33;1.33;;;;;;;17.47;86.38;100558.41;10464543;27;97346;-88
2023/12/12 03:09:45;;;;;;;4.20;1.80;;;;;;;17.51;85.99;100544.84;10465098;27;96808;-89
2023/12/12 03:14:51;;;;;;;3.50;1.38;;;;;;;17.50;86.13;100558.25;10464265;27;96887;-88
2023/12/12 03:19:56;;;;;;;3.05;1.73;;;;;;;17.53;85.95;100545.59;10463718;27;97320;-88
2023/12/12 03:25:04;;;;;;;3.45;1.58;;;;;;;17.52;85.66;100543.03;10461429;27;96872;-88
2023/12/12 03:30:11;;;;;;;11.07;5.30;;;;;;;17.40;85.89;100536.63;10463583;27;97004;-86
2023/12/12 03:35:16;;;;;;;4.75;2.17;;;;;;;17.33;86.26;100530.00;10463159;27;97422;-86
2023/12/12 03:40:24;;;;;;;5.13;2.00;;;;;;;17.32;86.74;100525.63;10462641;27;96868;-87
2023/12/12 03:45:29;;;;;;;2.75;1.30;;;;;;;17.34;86.54;100528.19;10463411;27;96687;-87
2023/12/12 03:50:33;;;;;;;2.95;1.77;;;;;;;17.29;85.82;100520.50;10462927;27;97169;-88
2023/12/12 03:55:39;;;;;;;4.55;1.52;;;;;;;17.30;86.16;100527.53;10462743;27;97384;-86
2023/12/12 04:00:47;;;;;;;1.95;1.48;;;;;;;17.28;86.28;100523.25;10462478;27;96723;-86
2023/12/12 04:05:53;;;;;;;3.33;1.33;;;;;;;17.23;86.21;100526.19;10462239;27;96545;-87
2023/12/12 04:11:02;;;;;;;;;;;;;;;17.20;86.43;100522.88;10462549;27;96798;-86
2023/12/12 04:16:07;;;;;;;2.45;1.10;;;;;;;17.15;86.07;100515.19;10461176;27;96690;-86
2023/12/12 04:21:14;;;;;;;2.35;1.45;;;;;;;17.16;85.98;100513.38;10462059;27;97183;-87
2023/12/12 04:26:21;;;;;;;3.40;1.35;;;;;;;17.15;86.01;100501.91;10457816;27;97282;-86
2023/12/12 04:31:25;;;;;;;2.83;1.23;;;;;;;17.14;85.98;100489.53;10440857;27;96733;-87
2023/12/12 04:36:29;;;;;;;;;;;;;;;17.15;86.01;100488.59;10461544;27;97186;-86
2023/12/12 04:41:40;;;;;;;3.05;1.05;;;;;;;17.12;85.63;100472.81;10461492;27;96768;-86
2023/12/12 04:46:45;;;;;;;2.65;1.10;;;;;;;17.04;85.99;100475.13;10461008;27;96581;-86
2023/12/12 04:51:51;;;;;;;3.20;1.27;;;;;;;17.05;85.55;100487.47;10461573;27;97085;-88
2023/12/12 04:56:58;;;;;;;2.20;1.13;;;;;;;17.05;85.33;100474.19;10460344;27;96650;-86
2023/12/12 05:02:03;;;;;;;1.15;0.88;;;;;;;16.99;85.08;100466.56;10460596;27;97373;-85
2023/12/12 05:07:10;;;;;;;2.45;0.90;;;;;;;16.87;85.80;100470.00;10459109;27;96769;-86
2023/12/12 05:12:17;;;;;;;2.78;1.10;;;;;;;16.87;86.06;100459.38;10460085;27;96550;-86
2023/12/12 05:17:24;;;;;;;1.30;0.82;;;;;;;16.77;85.92;100464.38;10460153;27;97075;-86
2023/12/12 05:22:29;;;;;;;2.88;0.93;;;;;;;16.69;86.80;100460.47;10459884;27;97269;-87
2023/12/12 05:27:35;;;;;;;3.15;1.20;;;;;;;16.68;86.62;100466.75;10460481;27;96857;-86
2023/12/12 05:32:40;;;;;;;1.58;1.20;;;;;;;16.69;86.43;100460.47;10459693;27;96677;-88
2023/12/12 05:37:45;;;;;;;2.65;1.23;;;;;;;16.71;86.16;100455.94;10459180;27;97077;-87
2023/12/12 05:42:53;;;;;;;1.98;1.20;;;;;;;16.61;87.09;100460.97;10460279;27;96790;-87
2023/12/12 05:47:57;;;;;;;1.02;0.65;;;;;;;16.65;86.22;100456.31;10458963;27;96748;-87
2023/12/12 05:53:02;;;;;;;2.22;0.90;;;;;;;16.73;85.38;100449.59;10459152;27;96871;-86
2023/12/12 05:58:09;;;;;;;2.70;0.70;;;;;;;16.76;85.26;100448.53;10457993;27;96844;-86
2023/12/12 06:03:14;;;;;;;2.45;1.05;;;;;;;16.68;85.11;100449.03;10459103;27;97099;-86
2023/12/12 06:08:19;;;;;;;1.83;1.00;;;;;;;16.60;85.74;100456.59;10464641;27;96862;-86
2023/12/12 06:13:27;;;;;;;2.88;1.08;;;;;;;16.55;85.94;100474.63;10465521;27;96674;-86
2023/12/12 06:18:32;;;;;;;2.58;0.90;;;;;;;16.51;85.97;100472.25;10465383;27;97180;-86
2023/12/12 06:23:38;;;;;;;0.90;0.77;;;;;;;16.44;86.69;100469.13;10465783;27;97214;-86
2023/12/12 06:28:45;;;;;;;1.25;0.80;;;;;;;16.35;87.13;100469.63;10430118;27;96762;-86
2023/12/12 06:33:49;;;;;;;1.73;0.90;;;;;;;16.36;86.89;100470.50;10465557;27;96800;-86
2023/12/12 06:38:55;;;;;;;3.10;1.20;;;;;;;16.30;87.58;100462.88;10465207;27;97223;-86
2023/12/12 06:44:02;;;;;;;2.90;1.08;;;;;;;16.34;87.66;100464.41;10465299;27;97168;-86
2023/12/12 06:49:08;;;;;;;2.45;1.10;;;;;;;16.38;86.71;100465.91;10463464;27;96662;-85
2023/12/12 06:54:12;;;;;;;2.95;1.05;;;;;;;16.45;86.63;100480.56;10464461;27;96801;-86
2023/12/12 06:59:20;;;;;;;3.42;0.80;;;;;;;16.58;85.69;100478.91;10464122;27;96673;-85
2023/12/12 07:04:25;;;;;;;1.58;0.90;;;;;;;16.48;86.05;100462.66;10463683;27;96809;-85
2023/12/12 07:09:29;;;;;;;2.42;1.25;;;;;;;16.68;84.36;100453.47;10464044;27;96688;-86
2023/12/12 07:14:36;;;;;;;1.08;0.80;;;;;;;16.69;84.47;100444.53;10422071;28;97299;-85
2023/12/12 07:19:41;;;;;;;1.30;0.82;;;;;;;16.93;82.52;100469.59;10421150;27;96679;-86
2023/12/12 07:24:46;;;;;;;1.77;0.70;;;;;;;17.17;79.83;100470.75;10462365;27;97148;-86
2023/12/12 07:29:53;;;;;;;1.55;0.80;;;;;;;16.95;82.42;100460.59;10464001;27;97005;-85
2023/12/12 07:34:57;;;;;;;2.13;0.82;;;;;;;16.95;82.20;100457.94;10462917;27;97971;-86
2023/12/12 07:40:03;;;;;;;1.05;0.70;;;;;;;17.20;78.89;100461.72;10461765;27;96786;-86
2023/12/12 07:45:11;;;;;;;1.27;0.43;;;;;;;17.37;78.02;100462.34;10463133;27;96558;-86
2023/12/12 07:50:17;;;;;;;1.25;0.60;;;;;;;17.39;77.69;100457.78;10462603;27;96558;-86
2023/12/12 07:55:21;;;;;;;1.38;0.68;;;;;;;17.41;77.69;100457.69;10462705;27;96670;-86
2023/12/12 08:00:29;;;;;;;1.50;0.60;;;;;;;17.49;76.01;100448.28;10462268;27;96572;-86
2023/12/12 08:05:36;;;;;;;0.60;0.40;;;;;;;17.53;75.86;100444.47;10462491;27;97130;-84
2023/12/12 08:10:41;;;;;;;1.63;0.50;;;;;;;17.62;74.91;100430.56;10462122;27;96694;-86
2023/12/12 08:15:47;;;;;;;0.30;0.20;;;;;;;17.65;74.45;100419.72;10463104;27;96822;-85
2023/12/12 08:20:52;;;;;;;1.77;0.50;;;;;;;17.75;73.32;100426.16;10461756;27;96724;-86
2023/12/12 08:25:57;;;;;;;0.50;0.30;;;;;;;17.81;72.57;100423.06;10462312;27;97226;-85
2023/12/12 08:31:06;;;;;;;1.48;0.40;;;;;;;17.93;73.18;100437.38;10459492;27;96773;-86
2023/12/12 08:36:12;;;;;;;2.10;0.47;;;;;;;17.94;72.70;100428.44;10461081;27;97239;-86
2023/12/12 08:41:17;;;;;;;1.65;0.50;;;;;;;17.98;73.23;100446.78;10462290;27;97461;-86
2023/12/12 08:46:26;;;;;;;0.82;0.40;;;;;;;17.98;72.32;100425.47;10460854;27;96784;-86
2023/12/12 08:51:32;;;;;;;2.88;0.50;;;;;;;18.07;72.27;100424.84;10460938;27;97075;-86
2023/12/12 08:56:37;;;;;;;0.93;0.45;;;;;;;18.15;71.38;100425.19;10460601;27;97458;-85
2023/12/12 09:01:44;;;;;;;0.60;0.40;;;;;;;18.39;71.42;100429.78;10460440;27;96688;-86
2023/12/12 09:06:50;;;;;;;0.70;0.40;;;;;;;18.43;71.66;100418.81;10460651;27;96767;-87
2023/12/12 09:11:54;;;;;;;0.82;0.40;;;;;;;18.49;71.83;100414.91;10460483;27;96611;-86
2023/12/12 09:17:01;;;;;;;0.60;0.30;;;;;;;18.58;70.51;100409.78;10460153;27;97066;-86
2023/12/12 09:22:06;;;;;;;1.05;0.63;;;;;;;18.66;69.86;100420.75;10458279;27;98362;-86
2023/12/12 09:27:11;;;;;;;1.55;0.50;;;;;;;18.90;69.71;100419.06;10458838;27;97092;-87
2023/12/12 09:32:18;;;;;;;1.85;0.55;;;;;;;19.00;69.05;100416.56;10459812;27;97415;-87
2023/12/12 09:37:23;;;;;;;1.17;0.70;;;;;;;19.08;68.99;100415.06;10458836;27;97030;-86
2023/12/12 09:42:32;;;;;;;2.92;0.57;;;;;;;19.22;69.13;100430.06;10465724;27;96616;-87
2023/12/12 09:47:42;;;;;;;0.82;0.50;;;;;;;19.08;68.67;100415.06;10467040;27;96569;-86
2023/12/12 09:52:49;;;;;;;3.85;0.75;;;;;;;19.05;69.65;100422.41;10466431;27;96561;-86
2023/12/12 09:57:54;;;;;;;2.58;0.80;;;;;;;19.00;69.07;100416.56;10467063;27;97615;-86
2023/12/12 10:03:05;;;;;;;2.20;1.10;;;;;;;19.00;69.66;100437.91;10466048;27;96669;-87
2023/12/12 10:08:12;;;;;;;2.38;0.90;;;;;;;18.51;73.83;100460.94;10468839;27;96765;-88
2023/12/12 10:13:20;;;;;;;2.70;1.20;;;;;;;17.94;78.14;100474.56;10465374;27;96923;-86
2023/12/12 10:18:27;;;;;;;1.30;0.90;;;;;;;17.50;83.00;100513.00;10465759;27;96858;-86
2023/12/12 10:23:33;;;;;;;2.53;0.98;;;;;;;17.27;83.70;100559.66;10465840;27;97023;-88
2023/12/12 10:28:38;;;;;;;1.65;0.70;;;;;;;17.27;83.47;100558.78;10465505;27;97301;-85
2023/12/12 10:33:45;;;;;;;0.82;0.50;;;;;;;17.04;84.17;100571.69;10465532;27;96861;-89
2023/12/12 10:38:51;;;;;;;1.15;0.68;;;;;;;16.77;85.41;100567.19;10465405;27;96662;-88
2023/12/12 10:44:01;;;;;;;0.45;0.30;;;;;;;16.69;85.61;100577.41;10464822;27;96872;-87
2023/12/12 10:49:12;;;;;;;0.30;0.30;;;;;;;16.71;85.15;100562.22;10424195;28;96718;-85
2023/12/12 10:54:19;;;;;;;1.77;0.50;;;;;;;16.69;85.89;100550.84;10422038;27;97139;-85
2023/12/12 10:59:24;;;;;;;1.15;1.05;;;;;;;16.76;84.96;100539.75;10435169;27;96822;-85
2023/12/12 11:04:52;;;;;;;1.77;0.82;;;;;;;16.77;85.36;100537.97;10456699;22;97105;-85
2023/12/12 11:09:55;;;;;;;5.75;2.20;;;;;;;16.86;84.66;100527.63;10380284;28;97520;-84
2023/12/12 11:15:00;;;;;;;4.53;1.73;;;;;;;16.91;84.45;100519.38;10380583;28;96871;-84
2023/12/12 11:20:18;;;;;;;3.65;1.90;;;;;;;16.86;84.93;100529.44;10380686;28;96751;-85
2023/12/12 11:25:23;;;;;;;2.60;1.40;;;;;;;16.76;85.69;100536.22;10379828;28;96754;-87
2023/12/12 11:30:31;;;;;;;;;;;;;;;16.51;88.15;100536.00;10380668;28;97327;-86
2023/12/12 11:35:38;;;;;;;1.20;0.57;;;;;;;16.44;88.10;100532.00;10380481;28;96786;-87
2023/12/12 11:40:42;;;;;;;1.38;1.05;;;;;;;16.61;87.28;100521.22;10380217;28;96746;-85
2023/12/12 11:45:47;;;;;;;1.17;0.80;;;;;;;16.73;86.82;100504.53;10379428;28;96796;-85
2023/12/12 11:50:56;;;;;;;1.95;1.27;;;;;;;16.78;86.46;100508.63;10379245;28;96651;-88
2023/12/12 11:56:02;;;;;;;1.83;0.95;;;;;;;16.63;87.46;100508.69;10411574;28;96977;-86
2023/12/12 12:01:07;;;;;;;2.15;0.70;;;;;;;16.68;87.44;100498.66;10404165;28;96912;-87
2023/12/12 12:06:14;;;;;;;1.17;0.70;;;;;;;16.57;88.13;100501.09;10377217;28;97279;-87
2023/12/12 12:11:18;;;;;;;1.70;1.10;;;;;;;16.59;87.92;100496.53;10397577;28;96779;-87
2023/12/12 12:16:23;;;;;;;1.33;1.00;;;;;;;16.68;87.66;100493.34;10420271;28;96904;-87
2023/12/12 12:21:31;;;;;;;3.40;1.80;;;;;;;16.69;87.37;100500.34;10419724;28;96649;-87
2023/12/12 12:26:39;;;;;;;2.63;1.23;;;;;;;16.72;87.22;100497.53;10411441;28;97455;-86
2023/12/12 12:31:45;;;;;;;2.70;1.13;;;;;;;16.70;87.70;100489.66;10421012;28;97341;-84
2023/12/12 12:36:55;;;;;;;8.35;3.22;;;;;;;16.61;87.67;100484.88;10419117;28;96910;-85
2023/12/12 12:42:03;;;;;;;2.95;1.30;;;;;;;16.72;87.20;100470.94;10418784;28;96851;-85
2023/12/12 12:47:07;;;;;;;2.35;1.30;;;;;;;16.74;87.52;100466.41;10417278;28;96773;-85
2023/12/12 12:52:15;;;;;;;2.70;1.40;;;;;;;16.71;87.37;100456.78;10419279;28;97056;-85
2023/12/12 12:57:19;;;;;;;3.53;1.20;;;;;;;16.70;87.85;100465.72;10416892;28;97422;-85
2023/12/12 13:02:29;;;;;;;1.10;0.60;;;;;;;16.68;87.58;100464.97;10396914;28;96880;-85
2023/12/12 13:07:38;;;;;;;0.60;0.40;;;;;;;16.67;87.48;100446.47;10418275;28;97118;-86
2023/12/12 13:12:46;;;;;;;0.98;0.63;;;;;;;16.71;87.49;100426.69;10418674;28;96756;-85
2023/12/12 13:17:51;;;;;;;0.45;0.45;;;;;;;16.63;88.18;100429.00;10417495;28;96727;-86
2023/12/12 13:22:59;;;;;;;0.32;0.30;;;;;;;16.55;88.32;100460.50;10419130;28;97329;-87
2023/12/12 13:28:06;;;;;;;0.95;0.60;;;;;;;16.55;88.16;100437.41;10376531;28;96744;-89
2023/12/12 13:33:11;;;;;;;0.30;0.30;;;;;;;16.22;90.88;100459.81;10376654;28;97080;-86
2023/12/12 13:38:18;;;;;;;1.95;1.13;;;;;;;16.19;91.70;100441.41;10374206;28;97432;-88
2023/12/12 13:43:23;;;;;;;1.17;0.73;;;;;;;16.11;91.89;100454.28;10376280;28;96546;-88
2023/12/12 13:48:28;;;;;;;1.45;1.10;;;;;;;16.11;91.77;100436.56;10375919;28;96728;-85
2023/12/12 13:53:36;;;;;;;1.55;1.00;;;;;;;16.04;92.50;100467.06;10375119;28;96659;-86
2023/12/12 13:58:41;;;;;;;1.33;0.88;;;;;;;16.04;92.05;100471.50;10343172;28;96613;-85
2023/12/12 14:04:02;;;;;;;2.20;1.20;;;;;;;15.98;91.75;100453.31;10332642;28;97437;-89
2023/12/12 14:15:34;;;;;;;2.93;1.57;;;;;;;15.69;91.33;100468.25;10312032;28;96895;-88
2023/12/12 14:20:41;;;;;;;3.38;1.70;;;;;;;15.57;91.17;100461.84;10375206;28;96724;-86
2023/12/12 14:26:22;;;;;;;;;;;;;;;15.69;91.44;100455.84;10376203;28;96695;-90
2023/12/12 14:31:35;;;;;;;3.30;2.22;;;;;;;15.68;90.42;100462.06;10383128;28;97261;-91
2023/12/12 14:36:47;;;;;;;4.82;2.42;;;;;;;15.65;90.75;100453.44;10389207;28;97171;-91
2023/12/12 14:54:16;;;;;;;4.00;2.30;;;;;;;15.88;89.83;100456.50;10333699;28;97274;-92
2023/12/12 14:59:29;;;;;;;2.65;1.83;;;;;;;15.90;89.93;100456.41;10349813;28;96565;-93
2023/12/12 15:04:59;;;;;;;3.35;1.83;;;;;;;15.87;89.64;100464.53;10383770;28;96652;-91
2023/12/12 15:10:27;;;;;;;1.90;1.10;;;;;;;15.77;90.09;100455.38;10385427;28;96541;-92
2023/12/12 15:15:37;;;;;;;2.03;1.25;;;;;;;15.74;90.97;100448.47;10386230;28;97203;-90
2023/12/12 15:20:50;;;;;;;1.65;1.00;;;;;;;15.73;90.55;100460.03;10422576;28;97024;-91
2023/12/12 15:25:57;;;;;;;1.92;1.10;;;;;;;15.74;90.60;100444.94;10416526;28;96655;-90
2023/12/12 15:31:05;;;;;;;1.33;0.90;;;;;;;15.69;90.58;100449.66;10381577;28;97156;-90
2023/12/12 15:36:13;;;;;;;2.75;0.80;;;;;;;15.73;90.57;100441.47;10406566;27;97065;-90
2023/12/12 15:41:23;;;;;;;2.58;1.00;;;;;;;15.76;90.27;100467.81;10421064;28;97214;-90
2023/12/12 15:46:29;;;;;;;1.95;0.90;;;;;;;15.78;89.75;100470.38;10421679;28;96700;-90
2023/12/12 15:51:37;;;;;;;1.33;0.90;;;;;;;15.80;90.11;100452.56;10420297;28;96719;-90
2023/12/12 15:56:42;;;;;;;4.25;1.63;;;;;;;15.64;90.22;100463.22;10407004;28;97306;-89
2023/12/12 16:01:47;;;;;;;2.55;0.80;;;;;;;15.81;89.85;100473.72;10379785;28;96936;-90
2023/12/12 16:06:56;;;;;;;1.88;0.90;;;;;;;15.84;89.59;100468.22;10379737;28;97255;-91
2023/12/12 16:12:02;;;;;;;4.05;0.90;;;;;;;15.77;89.79;100455.38;10422297;28;96591;-92
2023/12/12 16:17:08;;;;;;;2.55;0.82;;;;;;;15.82;89.83;100482.53;10420698;28;96666;-91
2023/12/12 16:22:20;;;;;;;2.28;0.90;;;;;;;15.64;90.92;100489.75;10420687;28;96620;-90
2023/12/12 16:27:27;;;;;;;3.08;1.02;;;;;;;15.59;91.03;100497.09;10419362;28;96616;-90
2023/12/12 16:32:31;;;;;;;1.63;1.10;;;;;;;15.53;90.83;100499.22;10420451;28;97267;-90
2023/12/12 16:37:44;;;;;;;;;;;;;;;15.47;90.96;100505.75;10419408;28;96779;-89
2023/12/12 16:42:49;;;;;;;1.98;1.10;;;;;;;15.53;90.79;100496.56;10417317;28;96909;-90
2023/12/12 16:47:54;;;;;;;3.38;1.20;;;;;;;15.49;90.46;100506.50;10418281;27;96799;-89
2023/12/12 16:53:02;;;;;;;1.77;0.70;;;;;;;15.41;90.08;100508.72;10419685;28;96653;-88
2023/12/12 16:58:07;;;;;;;3.03;1.27;;;;;;;15.41;89.97;100526.41;10380029;28;97626;-89
2023/12/12 17:03:13;;;;;;;4.25;1.02;;;;;;;15.41;89.91;100526.41;10410554;28;97075;-88
2023/12/12 17:08:20;;;;;;;3.13;0.93;;;;;;;15.32;89.63;100513.69;10417785;28;96933;-89
2023/12/12 17:13:25;;;;;;;2.28;1.02;;;;;;;15.33;90.06;100518.03;10418245;28;96641;-88
2023/12/12 17:18:30;;;;;;;1.65;0.80;;;;;;;15.35;89.29;100517.03;10388474;28;96724;-88
2023/12/12 17:23:37;;;;;;;;;;;;;;;15.36;89.99;100510.78;10376792;28;96617;-88
2023/12/12 17:28:41;;;;;;;5.35;1.27;;;;;;;15.26;89.10;100530.78;10376678;28;97270;-88
2023/12/12 17:33:46;;;;;;;5.45;1.10;;;;;;;15.26;90.07;100556.44;10391968;28;96665;-91
2023/12/12 17:45:02;;;;;;;8.07;1.67;;;;;;;15.44;89.47;100542.19;10421100;28;96871;-90
2023/12/12 17:50:23;;;;;;;2.72;1.05;;;;;;;15.44;89.75;100560.75;10393199;28;97483;-90
2023/12/12 17:55:32;;;;;;;4.40;1.52;;;;;;;15.37;89.71;100556.72;10419791;28;96727;-91
2023/12/12 18:00:43;;;;;;;3.90;1.50;;;;;;;15.38;90.22;100538.06;10420220;28;96685;-91
2023/12/12 18:17:10;;;;;;;19.67;8.38;;;;;;;15.41;89.83;100552.94;10334119;28;96731;-90
2023/12/12 18:22:15;;;;;;;8.93;4.07;;;;;;;15.45;89.86;100541.25;10341969;28;96956;-89
2023/12/12 18:27:25;;;;;;;7.18;2.50;;;;;;;15.32;90.45;100575.50;10404928;28;97088;-90
2023/12/12 18:32:34;;;;;;;5.47;1.90;;;;;;;15.34;89.58;100563.03;10382287;28;97057;-90
2023/12/12 18:37:43;;;;;;;6.25;1.83;;;;;;;15.40;89.51;100548.59;10385112;28;97103;-90
2023/12/12 18:42:52;;;;;;;5.00;1.77;;;;;;;15.49;89.49;100537.47;10405047;28;96768;-89
2023/12/12 18:47:58;;;;;;;5.13;1.80;;;;;;;15.48;89.17;100555.19;10388086;28;96713;-89
2023/12/12 18:53:05;;;;;;;14.73;6.35;;;;;;;15.38;89.11;100588.47;10380290;28;96865;-87
2023/12/12 18:58:12;;;;;;;5.90;2.88;;;;;;;15.19;90.25;100578.88;10389766;28;96871;-89
2023/12/12 19:03:18;;;;;;;5.13;1.88;;;;;;;15.16;90.17;100571.97;10423248;28;97352;-86
2023/12/12 19:08:25;;;;;;;4.57;1.55;;;;;;;15.22;90.07;100553.06;10424637;28;96807;-91
2023/12/12 19:13:34;;;;;;;7.78;2.03;;;;;;;15.23;90.26;100557.44;10421630;27;96733;-89
2023/12/12 19:18:38;;;;;;;6.05;2.65;;;;;;;15.15;90.93;100572.00;10422828;28;97084;-90
2023/12/12 19:23:44;;;;;;;7.10;2.30;;;;;;;15.14;90.90;100562.34;10424721;28;97077;-91
2023/12/12 19:28:55;;;;;;;3.15;1.63;;;;;;;15.09;90.84;100565.28;10394800;28;96732;-90
2023/12/12 19:34:06;;;;;;;5.22;1.67;;;;;;;15.04;91.34;100582.34;10381937;28;96662;-92
2023/12/12 19:39:13;;;;;;;3.70;1.90;;;;;;;15.09;90.78;100537.91;10380899;28;97543;-91
2023/12/12 19:44:20;;;;;;;3.00;1.80;;;;;;;15.01;91.24;100566.63;10377234;28;97383;-91
2023/12/12 19:49:26;;;;;;;4.45;1.77;;;;;;;15.01;91.52;100562.16;10390863;28;97853;-90
2023/12/12 19:54:32;;;;;;;10.35;1.77;;;;;;;15.00;90.73;100556.94;10421088;28;96765;-91
2023/12/12 19:59:39;;;;;;;2.85;1.23;;;;;;;15.07;90.42;100543.28;10421563;28;97142;-91
2023/12/12 20:04:44;;;;;;;7.70;2.20;;;;;;;15.01;90.60;100563.97;10420467;28;96883;-90
2023/12/12 20:09:49;;;;;;;5.78;1.70;;;;;;;14.97;90.35;100565.91;10418713;28;97496;-91
2023/12/12 20:14:57;;;;;;;5.00;1.77;;;;;;;15.06;89.89;100568.06;10419717;28;96875;-91
2023/12/12 20:20:02;;;;;;;6.13;2.28;;;;;;;15.03;90.16;100568.22;10420443;28;97080;-91
2023/12/12 20:25:07;;;;;;;3.88;1.70;;;;;;;14.91;90.28;100547.66;10392038;28;96634;-89
2023/12/12 20:30:18;;;;;;;4.93;1.63;;;;;;;14.89;90.15;100557.50;10379187;28;97182;-89
2023/12/12 20:35:22;;;;;;;8.85;2.15;;;;;;;14.74;89.62;100548.56;10375310;28;96878;-89
2023/12/12 20:40:26;;;;;;;6.60;1.88;;;;;;;14.83;89.44;100552.53;10388907;28;97731;-89
2023/12/12 20:45:33;;;;;;;7.05;2.17;;;;;;;14.82;89.59;100564.03;10418770;28;96862;-88
2023/12/12 20:50:42;;;;;;;5.50;2.25;;;;;;;14.82;89.33;100554.31;10418811;28;97393;-89
2023/12/12 20:55:48;;;;;;;4.93;1.58;;;;;;;14.82;88.36;100558.75;10418232;28;97057;-88
2023/12/12 21:00:55;;;;;;;7.00;2.50;;;;;;;14.80;88.61;100563.25;10378467;28;97198;-88
2023/12/12 21:05:59;;;;;;;4.20;1.85;;;;;;;14.78;88.41;100554.56;10376355;28;96810;-88
2023/12/12 21:11:04;;;;;;;8.10;2.20;;;;;;;14.84;88.33;100556.88;10377738;28;97074;-89
2023/12/12 21:16:24;;;;;;;6.55;1.92;;;;;;;14.90;88.60;100583.06;10402719;28;96791;-90
2023/12/12 21:21:33;;;;;;;4.25;1.52;;;;;;;14.75;88.09;100597.94;10409184;28;97201;-86
2023/12/12 21:26:37;;;;;;;;;;;;;;;14.55;86.39;100614.00;10375961;28;97091;-89
2023/12/12 21:31:44;;;;;;;6.15;1.70;;;;;;;14.39;87.97;100610.41;10390268;28;97397;-85
2023/12/12 21:36:48;;;;;;;6.18;1.27;;;;;;;14.41;88.34;100620.91;10417754;28;96909;-88
2023/12/12 21:41:59;;;;;;;4.50;1.17;;;;;;;14.46;88.54;100624.19;10379493;28;96631;-92
2023/12/12 21:47:07;;;;;;;5.93;1.40;;;;;;;14.26;88.54;100633.13;10377825;28;96812;-91
2023/12/12 21:52:12;;;;;;;4.90;1.45;;;;;;;14.33;89.12;100638.97;10419453;28;97110;-90
2023/12/12 21:57:16;;;;;;;4.53;1.20;;;;;;;14.15;86.94;100646.00;10419300;28;96945;-91
2023/12/12 22:02:23;;;;;;;5.68;1.75;;;;;;;14.10;87.71;100652.44;10417496;28;97201;-91
2023/12/12 22:07:28;;;;;;;4.07;1.02;;;;;;;14.09;88.08;100653.38;10415673;28;96834;-90
2023/12/12 22:12:35;;;;;;;4.10;1.15;;;;;;;14.18;88.46;100658.22;10417356;28;96758;-90
2023/12/12 22:17:42;;;;;;;6.90;1.35;;;;;;;14.14;88.31;100652.22;10414323;28;96716;-90
2023/12/12 22:22:48;;;;;;;2.78;1.00;;;;;;;14.24;87.91;100652.66;10385618;28;96775;-91
2023/12/12 22:27:53;;;;;;;4.75;1.40;;;;;;;14.16;88.48;100660.09;10374406;28;96827;-89
2023/12/12 22:33:01;;;;;;;5.95;1.70;;;;;;;14.17;88.04;100678.56;10374916;28;96804;-89
2023/12/12 22:38:06;;;;;;;2.75;1.13;;;;;;;14.21;87.88;100685.41;10375045;28;96686;-90
2023/12/12 22:43:11;;;;;;;3.20;1.00;;;;;;;14.34;87.89;100675.09;10401819;28;96752;-88
2023/12/12 22:48:18;;;;;;;3.20;1.20;;;;;;;14.32;88.12;100682.25;10376290;28;96581;-88
2023/12/12 22:53:23;;;;;;;1.30;0.80;;;;;;;14.38;88.24;100679.31;10381875;28;96647;-87
2023/12/12 22:58:28;;;;;;;5.57;1.40;;;;;;;14.42;87.90;100672.94;10394253;28;96567;-87
2023/12/12 23:03:38;;;;;;;3.80;1.33;;;;;;;14.43;87.75;100672.88;10380813;28;96726;-88
2023/12/12 23:08:46;;;;;;;2.75;0.90;;;;;;;14.35;88.31;100676.81;10382874;28;97411;-89
2023/12/12 23:14:26;;;;;;;;;;;;;;;;;;;;;
2023/12/12 23:19:35;;;;;;;3.53;0.80;;;;;;;14.27;88.39;100701.00;10378216;28;97067;-89
2023/12/12 23:31:00;;;;;;;3.22;0.95;;;;;;;14.19;88.71;100702.31;10382608;28;97462;-91
2023/12/12 23:36:26;;;;;;;2.78;1.00;;;;;;;14.24;88.32;100709.09;10376276;22;96953;-90
2023/12/12 23:41:32;;;;;;;3.20;0.98;;;;;;;14.22;88.58;100718.03;10338877;28;96698;-91
2023/12/12 23:46:44;;;;;;;5.25;1.48;;;;;;;14.16;89.37;100715.69;10339372;28;96666;-90
2023/12/12 23:51:54;;;;;;;2.20;0.75;;;;;;;14.13;89.34;100713.16;10339529;28;96957;-90
2023/12/12 23:57:01;;;;;;;3.10;1.05;;;;;;;14.18;89.32;100729.69;10338250;28;96932;-91
